Hallowell, Maine
Current Conditions -  °F | °C
As of 8:53 AM on Monday 20 Oct 2014 (Local Time) from KAUG Reporting Station
Clear Clear  
Wind Chill: 35°   Ceiling: Unl
Heat Index: 41°   Visibility: 10mi
Dew Point: 23°   Wind: 9mph
Humidity: 49%   Direction: 300°WNW
Pressure: 29.96"   Gusts: NA
Location:  44.29°N, 69.79°W
Report Text: KAUG 201253Z AUTO 30008KT 10SM CLR 05/M05 A2996 RMK AO2 SLP149 T00501050
Loading
Personal Weather Stations






























Interactive Weather Map
Tropical Storm Tracking
New forecast layout! Learn more

10-Day Weather Forecast

Advertisements
Track Severe Weather on mobile